sensor_id;sensor_type;location;lat;lon;timestamp;P1;durP1;ratioP1;P2;durP2;ratioP2
10884;SDS011;5495;53.252;10.390;2022-07-15T00:00:05;3.83;;;1.27;;
10884;SDS011;5495;53.252;10.390;2022-07-15T00:02:35;6.20;;;1.93;;
10884;SDS011;5495;53.252;10.390;2022-07-15T00:05:04;4.20;;;1.27;;
10884;SDS011;5495;53.252;10.390;2022-07-15T00:07:32;7.47;;;1.50;;
10884;SDS011;5495;53.252;10.390;2022-07-15T00:10:00;5.27;;;1.23;;
10884;SDS011;5495;53.252;10.390;2022-07-15T00:12:46;6.13;;;1.60;;
10884;SDS011;5495;53.252;10.390;2022-07-15T00:15:16;5.23;;;1.57;;
10884;SDS011;5495;53.252;10.390;2022-07-15T00:17:49;5.23;;;1.40;;
10884;SDS011;5495;53.252;10.390;2022-07-15T00:20:17;7.80;;;1.70;;
10884;SDS011;5495;53.252;10.390;2022-07-15T00:22:45;6.00;;;1.30;;
10884;SDS011;5495;53.252;10.390;2022-07-15T00:25:14;10.10;;;1.67;;
10884;SDS011;5495;53.252;10.390;2022-07-15T00:27:52;5.80;;;1.33;;
10884;SDS011;5495;53.252;10.390;2022-07-15T00:30:21;10.27;;;1.87;;
10884;SDS011;5495;53.252;10.390;2022-07-15T00:32:50;6.67;;;1.70;;
10884;SDS011;5495;53.252;10.390;2022-07-15T00:35:18;6.90;;;1.97;;
10884;SDS011;5495;53.252;10.390;2022-07-15T00:37:46;4.80;;;1.67;;
10884;SDS011;5495;53.252;10.390;2022-07-15T00:40:13;6.07;;;2.00;;
10884;SDS011;5495;53.252;10.390;2022-07-15T00:42:41;5.00;;;1.50;;
10884;SDS011;5495;53.252;10.390;2022-07-15T00:45:12;6.57;;;1.30;;
10884;SDS011;5495;53.252;10.390;2022-07-15T00:47:41;6.33;;;1.50;;
10884;SDS011;5495;53.252;10.390;2022-07-15T00:50:10;4.23;;;1.37;;
10884;SDS011;5495;53.252;10.390;2022-07-15T00:52:39;3.97;;;1.50;;
10884;SDS011;5495;53.252;10.390;2022-07-15T00:55:10;10.17;;;1.97;;
10884;SDS011;5495;53.252;10.390;2022-07-15T00:57:40;5.97;;;1.57;;
10884;SDS011;5495;53.252;10.390;2022-07-15T01:00:09;6.27;;;1.50;;
10884;SDS011;5495;53.252;10.390;2022-07-15T01:02:41;6.20;;;1.30;;
10884;SDS011;5495;53.252;10.390;2022-07-15T01:05:19;9.17;;;1.60;;
10884;SDS011;5495;53.252;10.390;2022-07-15T01:07:48;9.73;;;2.27;;
10884;SDS011;5495;53.252;10.390;2022-07-15T01:10:16;5.20;;;1.43;;
10884;SDS011;5495;53.252;10.390;2022-07-15T01:12:45;10.03;;;1.50;;
10884;SDS011;5495;53.252;10.390;2022-07-15T01:15:13;6.87;;;1.67;;
10884;SDS011;5495;53.252;10.390;2022-07-15T01:17:41;9.57;;;1.60;;
10884;SDS011;5495;53.252;10.390;2022-07-15T01:20:11;8.33;;;1.40;;
10884;SDS011;5495;53.252;10.390;2022-07-15T01:22:40;4.37;;;1.13;;
10884;SDS011;5495;53.252;10.390;2022-07-15T01:25:08;6.57;;;1.27;;
10884;SDS011;5495;53.252;10.390;2022-07-15T01:27:35;6.63;;;1.73;;
10884;SDS011;5495;53.252;10.390;2022-07-15T01:30:09;4.83;;;1.40;;
10884;SDS011;5495;53.252;10.390;2022-07-15T01:32:37;6.93;;;1.60;;
10884;SDS011;5495;53.252;10.390;2022-07-15T01:35:05;6.73;;;1.60;;
10884;SDS011;5495;53.252;10.390;2022-07-15T01:37:33;5.83;;;1.63;;
10884;SDS011;5495;53.252;10.390;2022-07-15T01:40:03;9.10;;;2.03;;
10884;SDS011;5495;53.252;10.390;2022-07-15T01:42:32;6.03;;;1.43;;
10884;SDS011;5495;53.252;10.390;2022-07-15T01:44:59;8.10;;;1.80;;
10884;SDS011;5495;53.252;10.390;2022-07-15T01:47:34;5.03;;;1.60;;
10884;SDS011;5495;53.252;10.390;2022-07-15T01:50:08;7.03;;;1.33;;
10884;SDS011;5495;53.252;10.390;2022-07-15T01:52:36;4.97;;;1.23;;
10884;SDS011;5495;53.252;10.390;2022-07-15T01:55:06;4.67;;;1.40;;
10884;SDS011;5495;53.252;10.390;2022-07-15T01:57:35;6.07;;;1.53;;
10884;SDS011;5495;53.252;10.390;2022-07-15T02:00:03;4.37;;;1.20;;
10884;SDS011;5495;53.252;10.390;2022-07-15T02:02:31;7.57;;;1.70;;
10884;SDS011;5495;53.252;10.390;2022-07-15T02:04:59;5.93;;;1.50;;
10884;SDS011;5495;53.252;10.390;2022-07-15T02:07:28;6.73;;;1.60;;
10884;SDS011;5495;53.252;10.390;2022-07-15T02:09:55;6.70;;;1.37;;
10884;SDS011;5495;53.252;10.390;2022-07-15T02:12:26;4.63;;;1.10;;
10884;SDS011;5495;53.252;10.390;2022-07-15T02:15:04;6.10;;;1.50;;
10884;SDS011;5495;53.252;10.390;2022-07-15T02:17:32;5.47;;;1.40;;
10884;SDS011;5495;53.252;10.390;2022-07-15T02:19:59;9.03;;;1.40;;
10884;SDS011;5495;53.252;10.390;2022-07-15T02:22:29;7.93;;;1.80;;
10884;SDS011;5495;53.252;10.390;2022-07-15T02:24:57;9.90;;;1.70;;
10884;SDS011;5495;53.252;10.390;2022-07-15T02:27:24;4.07;;;1.23;;
10884;SDS011;5495;53.252;10.390;2022-07-15T02:29:53;7.63;;;1.40;;
10884;SDS011;5495;53.252;10.390;2022-07-15T02:32:27;4.57;;;1.70;;
10884;SDS011;5495;53.252;10.390;2022-07-15T02:34:54;6.37;;;1.70;;
10884;SDS011;5495;53.252;10.390;2022-07-15T02:37:22;8.00;;;1.50;;
10884;SDS011;5495;53.252;10.390;2022-07-15T02:39:49;5.87;;;1.60;;
10884;SDS011;5495;53.252;10.390;2022-07-15T02:42:16;7.03;;;1.40;;
10884;SDS011;5495;53.252;10.390;2022-07-15T02:44:45;4.57;;;1.20;;
10884;SDS011;5495;53.252;10.390;2022-07-15T02:47:13;9.23;;;1.57;;
10884;SDS011;5495;53.252;10.390;2022-07-15T02:49:43;6.83;;;1.40;;
10884;SDS011;5495;53.252;10.390;2022-07-15T02:52:10;7.70;;;1.63;;
10884;SDS011;5495;53.252;10.390;2022-07-15T02:54:40;6.27;;;1.67;;
10884;SDS011;5495;53.252;10.390;2022-07-15T02:57:10;5.77;;;1.53;;
10884;SDS011;5495;53.252;10.390;2022-07-15T02:59:37;5.17;;;1.20;;
10884;SDS011;5495;53.252;10.390;2022-07-15T03:02:06;4.93;;;1.33;;
10884;SDS011;5495;53.252;10.390;2022-07-15T03:04:33;7.30;;;1.83;;
10884;SDS011;5495;53.252;10.390;2022-07-15T03:07:01;6.70;;;1.20;;
10884;SDS011;5495;53.252;10.390;2022-07-15T03:09:28;3.47;;;1.10;;
10884;SDS011;5495;53.252;10.390;2022-07-15T03:11:56;7.43;;;1.53;;
10884;SDS011;5495;53.252;10.390;2022-07-15T03:14:23;5.40;;;1.50;;
10884;SDS011;5495;53.252;10.390;2022-07-15T03:16:51;4.87;;;1.30;;
10884;SDS011;5495;53.252;10.390;2022-07-15T03:19:22;5.23;;;1.50;;
10884;SDS011;5495;53.252;10.390;2022-07-15T03:21:49;5.83;;;1.60;;
10884;SDS011;5495;53.252;10.390;2022-07-15T03:24:17;8.03;;;1.47;;
10884;SDS011;5495;53.252;10.390;2022-07-15T03:26:44;6.07;;;1.40;;
10884;SDS011;5495;53.252;10.390;2022-07-15T03:29:12;9.20;;;1.67;;
10884;SDS011;5495;53.252;10.390;2022-07-15T03:31:40;6.57;;;1.60;;
10884;SDS011;5495;53.252;10.390;2022-07-15T03:34:08;4.63;;;1.10;;
10884;SDS011;5495;53.252;10.390;2022-07-15T03:36:38;9.40;;;1.67;;
10884;SDS011;5495;53.252;10.390;2022-07-15T03:39:06;5.83;;;1.30;;
10884;SDS011;5495;53.252;10.390;2022-07-15T03:41:35;5.53;;;1.30;;
10884;SDS011;5495;53.252;10.390;2022-07-15T03:44:02;4.97;;;1.47;;
10884;SDS011;5495;53.252;10.390;2022-07-15T03:46:36;3.37;;;1.10;;
10884;SDS011;5495;53.252;10.390;2022-07-15T03:49:03;5.83;;;1.30;;
10884;SDS011;5495;53.252;10.390;2022-07-15T03:51:32;5.60;;;1.17;;
10884;SDS011;5495;53.252;10.390;2022-07-15T03:54:02;6.60;;;1.03;;
10884;SDS011;5495;53.252;10.390;2022-07-15T03:56:33;8.27;;;1.63;;
10884;SDS011;5495;53.252;10.390;2022-07-15T03:59:02;5.87;;;1.27;;
10884;SDS011;5495;53.252;10.390;2022-07-15T04:01:30;13.13;;;1.80;;
10884;SDS011;5495;53.252;10.390;2022-07-15T04:03:57;6.70;;;1.50;;
10884;SDS011;5495;53.252;10.390;2022-07-15T04:06:25;5.20;;;1.30;;
10884;SDS011;5495;53.252;10.390;2022-07-15T04:08:52;6.80;;;1.13;;
10884;SDS011;5495;53.252;10.390;2022-07-15T04:11:21;5.70;;;1.30;;
10884;SDS011;5495;53.252;10.390;2022-07-15T04:13:49;8.83;;;1.63;;
10884;SDS011;5495;53.252;10.390;2022-07-15T04:16:16;2.73;;;1.20;;
10884;SDS011;5495;53.252;10.390;2022-07-15T04:18:43;3.47;;;1.27;;
10884;SDS011;5495;53.252;10.390;2022-07-15T04:21:18;3.80;;;1.20;;
10884;SDS011;5495;53.252;10.390;2022-07-15T04:23:46;6.27;;;1.47;;
10884;SDS011;5495;53.252;10.390;2022-07-15T04:26:13;7.03;;;1.53;;
10884;SDS011;5495;53.252;10.390;2022-07-15T04:28:44;7.53;;;1.60;;
10884;SDS011;5495;53.252;10.390;2022-07-15T04:31:12;8.33;;;1.50;;
10884;SDS011;5495;53.252;10.390;2022-07-15T04:33:39;5.37;;;1.40;;
10884;SDS011;5495;53.252;10.390;2022-07-15T04:36:07;10.03;;;1.50;;
10884;SDS011;5495;53.252;10.390;2022-07-15T04:38:34;6.20;;;1.20;;
10884;SDS011;5495;53.252;10.390;2022-07-15T04:41:02;5.60;;;1.50;;
10884;SDS011;5495;53.252;10.390;2022-07-15T04:43:29;4.93;;;1.40;;
10884;SDS011;5495;53.252;10.390;2022-07-15T04:45:58;4.50;;;1.20;;
10884;SDS011;5495;53.252;10.390;2022-07-15T04:48:25;6.13;;;1.50;;
10884;SDS011;5495;53.252;10.390;2022-07-15T04:51:11;6.43;;;1.30;;
10884;SDS011;5495;53.252;10.390;2022-07-15T04:53:38;8.03;;;1.70;;
10884;SDS011;5495;53.252;10.390;2022-07-15T04:56:06;6.07;;;1.40;;
10884;SDS011;5495;53.252;10.390;2022-07-15T04:58:33;7.90;;;1.60;;
10884;SDS011;5495;53.252;10.390;2022-07-15T05:01:05;6.63;;;1.30;;
10884;SDS011;5495;53.252;10.390;2022-07-15T05:03:32;6.07;;;1.47;;
10884;SDS011;5495;53.252;10.390;2022-07-15T05:05:59;5.63;;;1.17;;
10884;SDS011;5495;53.252;10.390;2022-07-15T05:08:27;5.67;;;1.20;;
10884;SDS011;5495;53.252;10.390;2022-07-15T05:10:55;7.30;;;1.70;;
10884;SDS011;5495;53.252;10.390;2022-07-15T05:13:23;8.37;;;1.73;;
10884;SDS011;5495;53.252;10.390;2022-07-15T05:15:50;5.93;;;1.40;;
10884;SDS011;5495;53.252;10.390;2022-07-15T05:18:22;7.53;;;1.33;;
10884;SDS011;5495;53.252;10.390;2022-07-15T05:20:50;4.57;;;1.30;;
10884;SDS011;5495;53.252;10.390;2022-07-15T05:23:18;5.43;;;1.20;;
10884;SDS011;5495;53.252;10.390;2022-07-15T05:25:47;7.67;;;1.57;;
10884;SDS011;5495;53.252;10.390;2022-07-15T05:28:14;6.33;;;1.37;;
10884;SDS011;5495;53.252;10.390;2022-07-15T05:30:42;6.83;;;1.60;;
10884;SDS011;5495;53.252;10.390;2022-07-15T05:33:19;7.03;;;1.57;;
10884;SDS011;5495;53.252;10.390;2022-07-15T05:35:47;6.17;;;1.53;;
10884;SDS011;5495;53.252;10.390;2022-07-15T05:38:15;5.77;;;1.30;;
10884;SDS011;5495;53.252;10.390;2022-07-15T05:40:45;4.43;;;1.40;;
10884;SDS011;5495;53.252;10.390;2022-07-15T05:43:12;7.23;;;1.57;;
10884;SDS011;5495;53.252;10.390;2022-07-15T05:45:39;5.50;;;1.50;;
10884;SDS011;5495;53.252;10.390;2022-07-15T05:48:13;6.47;;;1.57;;
10884;SDS011;5495;53.252;10.390;2022-07-15T05:50:48;5.47;;;1.33;;
10884;SDS011;5495;53.252;10.390;2022-07-15T05:53:17;6.70;;;1.50;;
10884;SDS011;5495;53.252;10.390;2022-07-15T05:55:44;6.20;;;1.57;;
10884;SDS011;5495;53.252;10.390;2022-07-15T05:58:12;6.40;;;1.57;;
10884;SDS011;5495;53.252;10.390;2022-07-15T06:00:39;6.73;;;1.63;;
10884;SDS011;5495;53.252;10.390;2022-07-15T06:03:07;7.03;;;1.30;;
10884;SDS011;5495;53.252;10.390;2022-07-15T06:05:34;4.83;;;1.40;;
10884;SDS011;5495;53.252;10.390;2022-07-15T06:08:03;8.03;;;1.20;;
10884;SDS011;5495;53.252;10.390;2022-07-15T06:10:31;6.27;;;1.37;;
10884;SDS011;5495;53.252;10.390;2022-07-15T06:12:58;7.43;;;1.53;;
10884;SDS011;5495;53.252;10.390;2022-07-15T06:15:26;5.40;;;1.20;;
10884;SDS011;5495;53.252;10.390;2022-07-15T06:17:56;5.27;;;1.40;;
10884;SDS011;5495;53.252;10.390;2022-07-15T06:20:23;8.00;;;1.10;;
10884;SDS011;5495;53.252;10.390;2022-07-15T06:22:54;5.07;;;1.20;;
10884;SDS011;5495;53.252;10.390;2022-07-15T06:25:24;9.77;;;1.93;;
10884;SDS011;5495;53.252;10.390;2022-07-15T06:27:54;6.80;;;1.73;;
10884;SDS011;5495;53.252;10.390;2022-07-15T06:30:24;5.50;;;1.30;;
10884;SDS011;5495;53.252;10.390;2022-07-15T06:32:52;5.90;;;1.43;;
10884;SDS011;5495;53.252;10.390;2022-07-15T06:35:19;4.60;;;1.27;;
10884;SDS011;5495;53.252;10.390;2022-07-15T06:37:47;4.53;;;1.40;;
10884;SDS011;5495;53.252;10.390;2022-07-15T06:40:14;11.80;;;1.40;;
10884;SDS011;5495;53.252;10.390;2022-07-15T06:42:43;4.53;;;1.20;;
10884;SDS011;5495;53.252;10.390;2022-07-15T06:45:12;4.17;;;1.10;;
10884;SDS011;5495;53.252;10.390;2022-07-15T06:47:39;3.93;;;1.10;;
10884;SDS011;5495;53.252;10.390;2022-07-15T06:50:07;5.67;;;1.20;;
10884;SDS011;5495;53.252;10.390;2022-07-15T06:52:36;8.23;;;1.50;;
10884;SDS011;5495;53.252;10.390;2022-07-15T06:55:05;6.43;;;1.20;;
10884;SDS011;5495;53.252;10.390;2022-07-15T06:57:33;3.73;;;1.00;;
10884;SDS011;5495;53.252;10.390;2022-07-15T07:00:02;6.83;;;1.30;;
10884;SDS011;5495;53.252;10.390;2022-07-15T07:02:32;9.30;;;1.63;;
10884;SDS011;5495;53.252;10.390;2022-07-15T07:04:59;8.40;;;2.00;;
10884;SDS011;5495;53.252;10.390;2022-07-15T07:07:26;4.77;;;1.20;;
10884;SDS011;5495;53.252;10.390;2022-07-15T07:09:56;6.47;;;1.23;;
10884;SDS011;5495;53.252;10.390;2022-07-15T07:12:23;2.93;;;1.33;;
10884;SDS011;5495;53.252;10.390;2022-07-15T07:14:50;6.97;;;1.60;;
10884;SDS011;5495;53.252;10.390;2022-07-15T07:17:19;2.70;;;1.13;;
10884;SDS011;5495;53.252;10.390;2022-07-15T07:19:48;7.20;;;1.40;;
10884;SDS011;5495;53.252;10.390;2022-07-15T07:22:16;3.20;;;1.20;;
10884;SDS011;5495;53.252;10.390;2022-07-15T07:24:44;8.27;;;2.03;;
10884;SDS011;5495;53.252;10.390;2022-07-15T07:27:12;4.37;;;1.23;;
10884;SDS011;5495;53.252;10.390;2022-07-15T07:29:39;3.50;;;1.00;;
10884;SDS011;5495;53.252;10.390;2022-07-15T07:32:07;4.50;;;1.40;;
10884;SDS011;5495;53.252;10.390;2022-07-15T07:34:35;6.03;;;1.20;;
10884;SDS011;5495;53.252;10.390;2022-07-15T07:37:03;9.17;;;1.20;;
10884;SDS011;5495;53.252;10.390;2022-07-15T07:39:31;6.87;;;1.70;;
10884;SDS011;5495;53.252;10.390;2022-07-15T07:41:58;5.70;;;1.13;;
10884;SDS011;5495;53.252;10.390;2022-07-15T07:44:26;6.20;;;1.47;;
10884;SDS011;5495;53.252;10.390;2022-07-15T07:46:56;5.73;;;1.30;;
10884;SDS011;5495;53.252;10.390;2022-07-15T07:49:24;4.67;;;1.27;;
10884;SDS011;5495;53.252;10.390;2022-07-15T07:51:53;5.53;;;1.20;;
10884;SDS011;5495;53.252;10.390;2022-07-15T07:54:20;7.57;;;1.37;;
10884;SDS011;5495;53.252;10.390;2022-07-15T07:56:48;4.23;;;1.10;;
10884;SDS011;5495;53.252;10.390;2022-07-15T07:59:15;2.73;;;1.20;;
10884;SDS011;5495;53.252;10.390;2022-07-15T08:01:43;8.07;;;1.53;;
10884;SDS011;5495;53.252;10.390;2022-07-15T08:04:10;6.37;;;1.03;;
10884;SDS011;5495;53.252;10.390;2022-07-15T08:06:39;4.33;;;1.27;;
10884;SDS011;5495;53.252;10.390;2022-07-15T08:09:10;3.63;;;1.17;;
10884;SDS011;5495;53.252;10.390;2022-07-15T08:11:37;3.80;;;1.27;;
10884;SDS011;5495;53.252;10.390;2022-07-15T08:14:04;6.13;;;1.30;;
10884;SDS011;5495;53.252;10.390;2022-07-15T08:16:32;4.70;;;1.30;;
10884;SDS011;5495;53.252;10.390;2022-07-15T08:19:00;6.20;;;1.37;;
10884;SDS011;5495;53.252;10.390;2022-07-15T08:21:27;4.90;;;1.40;;
10884;SDS011;5495;53.252;10.390;2022-07-15T08:23:56;3.17;;;0.90;;
10884;SDS011;5495;53.252;10.390;2022-07-15T08:26:25;10.20;;;1.43;;
10884;SDS011;5495;53.252;10.390;2022-07-15T08:28:52;4.83;;;1.00;;
10884;SDS011;5495;53.252;10.390;2022-07-15T08:31:21;6.03;;;1.43;;
10884;SDS011;5495;53.252;10.390;2022-07-15T08:33:49;5.60;;;1.33;;
10884;SDS011;5495;53.252;10.390;2022-07-15T08:36:16;9.63;;;1.60;;
10884;SDS011;5495;53.252;10.390;2022-07-15T08:38:45;5.57;;;1.17;;
10884;SDS011;5495;53.252;10.390;2022-07-15T08:41:14;4.73;;;1.20;;
10884;SDS011;5495;53.252;10.390;2022-07-15T08:43:43;4.23;;;1.20;;
10884;SDS011;5495;53.252;10.390;2022-07-15T08:46:14;2.47;;;0.87;;
10884;SDS011;5495;53.252;10.390;2022-07-15T08:48:47;5.57;;;1.30;;
10884;SDS011;5495;53.252;10.390;2022-07-15T08:51:16;4.80;;;1.10;;
10884;SDS011;5495;53.252;10.390;2022-07-15T08:53:50;6.47;;;1.20;;
10884;SDS011;5495;53.252;10.390;2022-07-15T08:56:18;4.47;;;0.93;;
10884;SDS011;5495;53.252;10.390;2022-07-15T08:58:48;4.10;;;1.00;;
10884;SDS011;5495;53.252;10.390;2022-07-15T09:01:16;4.80;;;1.20;;
10884;SDS011;5495;53.252;10.390;2022-07-15T09:03:43;4.00;;;1.10;;
10884;SDS011;5495;53.252;10.390;2022-07-15T09:06:11;5.87;;;1.40;;
10884;SDS011;5495;53.252;10.390;2022-07-15T09:08:57;6.37;;;1.20;;
10884;SDS011;5495;53.252;10.390;2022-07-15T09:11:27;4.73;;;0.90;;
10884;SDS011;5495;53.252;10.390;2022-07-15T09:13:57;6.33;;;1.27;;
10884;SDS011;5495;53.252;10.390;2022-07-15T09:16:26;3.27;;;1.10;;
10884;SDS011;5495;53.252;10.390;2022-07-15T09:18:54;4.23;;;0.97;;
10884;SDS011;5495;53.252;10.390;2022-07-15T09:21:22;4.97;;;1.20;;
10884;SDS011;5495;53.252;10.390;2022-07-15T09:23:51;6.43;;;1.10;;
10884;SDS011;5495;53.252;10.390;2022-07-15T09:26:23;6.67;;;1.07;;
10884;SDS011;5495;53.252;10.390;2022-07-15T09:28:52;4.53;;;0.90;;
10884;SDS011;5495;53.252;10.390;2022-07-15T09:31:31;6.40;;;0.90;;
10884;SDS011;5495;53.252;10.390;2022-07-15T09:34:16;4.53;;;1.13;;
10884;SDS011;5495;53.252;10.390;2022-07-15T09:36:45;3.93;;;1.10;;
10884;SDS011;5495;53.252;10.390;2022-07-15T09:39:18;5.57;;;0.97;;
10884;SDS011;5495;53.252;10.390;2022-07-15T09:41:48;5.57;;;1.10;;
10884;SDS011;5495;53.252;10.390;2022-07-15T09:44:16;3.83;;;1.17;;
10884;SDS011;5495;53.252;10.390;2022-07-15T09:46:47;3.93;;;1.10;;
10884;SDS011;5495;53.252;10.390;2022-07-15T09:49:30;2.73;;;1.20;;
10884;SDS011;5495;53.252;10.390;2022-07-15T09:52:02;7.80;;;1.53;;
10884;SDS011;5495;53.252;10.390;2022-07-15T09:54:35;4.27;;;0.93;;
10884;SDS011;5495;53.252;10.390;2022-07-15T09:57:05;3.60;;;0.80;;
10884;SDS011;5495;53.252;10.390;2022-07-15T09:59:37;3.53;;;0.90;;
10884;SDS011;5495;53.252;10.390;2022-07-15T10:02:06;5.03;;;1.00;;
10884;SDS011;5495;53.252;10.390;2022-07-15T10:04:34;3.73;;;1.00;;
10884;SDS011;5495;53.252;10.390;2022-07-15T10:07:02;3.90;;;1.07;;
10884;SDS011;5495;53.252;10.390;2022-07-15T10:09:31;5.50;;;1.20;;
10884;SDS011;5495;53.252;10.390;2022-07-15T10:12:00;6.20;;;0.90;;
10884;SDS011;5495;53.252;10.390;2022-07-15T10:14:37;3.97;;;0.80;;
10884;SDS011;5495;53.252;10.390;2022-07-15T10:17:35;4.07;;;1.00;;
10884;SDS011;5495;53.252;10.390;2022-07-15T10:23:13;4.70;;;1.27;;
10884;SDS011;5495;53.252;10.390;2022-07-15T10:25:55;1.50;;;0.70;;
10884;SDS011;5495;53.252;10.390;2022-07-15T10:28:35;5.87;;;1.10;;
10884;SDS011;5495;53.252;10.390;2022-07-15T10:31:14;3.97;;;0.83;;
10884;SDS011;5495;53.252;10.390;2022-07-15T10:36:56;8.00;;;1.03;;
10884;SDS011;5495;53.252;10.390;2022-07-15T10:39:26;4.97;;;0.97;;
10884;SDS011;5495;53.252;10.390;2022-07-15T10:41:57;5.17;;;0.90;;
10884;SDS011;5495;53.252;10.390;2022-07-15T10:44:28;3.83;;;1.03;;
10884;SDS011;5495;53.252;10.390;2022-07-15T10:49:45;5.23;;;1.13;;
10884;SDS011;5495;53.252;10.390;2022-07-15T10:52:14;3.80;;;0.90;;
10884;SDS011;5495;53.252;10.390;2022-07-15T10:54:44;1.97;;;0.70;;
10884;SDS011;5495;53.252;10.390;2022-07-15T10:57:18;3.27;;;0.93;;
10884;SDS011;5495;53.252;10.390;2022-07-15T10:59:50;6.40;;;1.10;;
10884;SDS011;5495;53.252;10.390;2022-07-15T11:02:20;1.67;;;0.70;;
10884;SDS011;5495;53.252;10.390;2022-07-15T11:04:50;6.40;;;0.87;;
10884;SDS011;5495;53.252;10.390;2022-07-15T11:07:38;5.47;;;1.27;;
10884;SDS011;5495;53.252;10.390;2022-07-15T11:10:13;3.27;;;1.00;;
10884;SDS011;5495;53.252;10.390;2022-07-15T11:12:56;2.47;;;0.90;;
10884;SDS011;5495;53.252;10.390;2022-07-15T11:15:32;3.67;;;0.90;;
10884;SDS011;5495;53.252;10.390;2022-07-15T11:18:00;2.50;;;0.90;;
10884;SDS011;5495;53.252;10.390;2022-07-15T11:20:35;4.97;;;0.80;;
10884;SDS011;5495;53.252;10.390;2022-07-15T11:23:04;3.40;;;1.00;;
10884;SDS011;5495;53.252;10.390;2022-07-15T11:25:33;1.70;;;0.67;;
10884;SDS011;5495;53.252;10.390;2022-07-15T11:28:04;4.37;;;0.83;;
10884;SDS011;5495;53.252;10.390;2022-07-15T11:30:36;2.63;;;0.70;;
10884;SDS011;5495;53.252;10.390;2022-07-15T11:33:06;2.77;;;0.77;;
10884;SDS011;5495;53.252;10.390;2022-07-15T11:35:44;2.63;;;0.70;;
10884;SDS011;5495;53.252;10.390;2022-07-15T11:38:13;2.47;;;0.70;;
10884;SDS011;5495;53.252;10.390;2022-07-15T11:40:45;3.87;;;0.90;;
10884;SDS011;5495;53.252;10.390;2022-07-15T11:43:34;5.23;;;0.83;;
10884;SDS011;5495;53.252;10.390;2022-07-15T11:46:19;3.60;;;0.80;;
10884;SDS011;5495;53.252;10.390;2022-07-15T11:48:48;1.67;;;0.70;;
10884;SDS011;5495;53.252;10.390;2022-07-15T11:51:23;2.50;;;0.60;;
10884;SDS011;5495;53.252;10.390;2022-07-15T11:53:52;3.27;;;0.87;;
10884;SDS011;5495;53.252;10.390;2022-07-15T11:56:24;2.30;;;0.73;;
10884;SDS011;5495;53.252;10.390;2022-07-15T11:58:52;1.50;;;0.70;;
10884;SDS011;5495;53.252;10.390;2022-07-15T12:01:22;3.47;;;0.60;;
10884;SDS011;5495;53.252;10.390;2022-07-15T12:03:53;3.57;;;0.80;;
10884;SDS011;5495;53.252;10.390;2022-07-15T12:06:26;2.97;;;1.00;;
10884;SDS011;5495;53.252;10.390;2022-07-15T12:08:54;2.20;;;0.80;;
10884;SDS011;5495;53.252;10.390;2022-07-15T12:11:30;2.47;;;0.70;;
10884;SDS011;5495;53.252;10.390;2022-07-15T12:14:01;2.33;;;0.80;;
10884;SDS011;5495;53.252;10.390;2022-07-15T12:16:33;9.23;;;1.10;;
10884;SDS011;5495;53.252;10.390;2022-07-15T12:19:02;1.90;;;0.87;;
10884;SDS011;5495;53.252;10.390;2022-07-15T12:21:34;3.43;;;0.87;;
10884;SDS011;5495;53.252;10.390;2022-07-15T12:24:04;2.43;;;0.70;;
10884;SDS011;5495;53.252;10.390;2022-07-15T12:26:35;4.27;;;0.80;;
10884;SDS011;5495;53.252;10.390;2022-07-15T12:29:10;4.10;;;0.80;;
10884;SDS011;5495;53.252;10.390;2022-07-15T12:31:38;4.30;;;0.90;;
10884;SDS011;5495;53.252;10.390;2022-07-15T12:34:15;4.20;;;0.80;;
10884;SDS011;5495;53.252;10.390;2022-07-15T12:36:54;1.20;;;0.57;;
10884;SDS011;5495;53.252;10.390;2022-07-15T12:39:23;2.07;;;0.80;;
10884;SDS011;5495;53.252;10.390;2022-07-15T12:41:58;2.47;;;0.80;;
10884;SDS011;5495;53.252;10.390;2022-07-15T12:44:27;3.17;;;0.97;;
10884;SDS011;5495;53.252;10.390;2022-07-15T12:46:57;3.93;;;0.90;;
10884;SDS011;5495;53.252;10.390;2022-07-15T12:49:45;2.00;;;0.70;;
10884;SDS011;5495;53.252;10.390;2022-07-15T12:52:22;2.57;;;1.03;;
10884;SDS011;5495;53.252;10.390;2022-07-15T12:55:14;1.80;;;0.90;;
10884;SDS011;5495;53.252;10.390;2022-07-15T12:57:43;2.40;;;0.60;;
10884;SDS011;5495;53.252;10.390;2022-07-15T13:00:15;5.20;;;1.17;;
10884;SDS011;5495;53.252;10.390;2022-07-15T13:02:58;6.60;;;1.10;;
10884;SDS011;5495;53.252;10.390;2022-07-15T13:05:28;4.67;;;0.80;;
10884;SDS011;5495;53.252;10.390;2022-07-15T13:08:03;4.07;;;1.40;;
10884;SDS011;5495;53.252;10.390;2022-07-15T13:10:32;2.43;;;1.27;;
10884;SDS011;5495;53.252;10.390;2022-07-15T13:13:01;3.90;;;0.90;;
10884;SDS011;5495;53.252;10.390;2022-07-15T13:15:29;2.33;;;0.90;;
10884;SDS011;5495;53.252;10.390;2022-07-15T13:17:57;2.80;;;1.03;;
10884;SDS011;5495;53.252;10.390;2022-07-15T13:20:26;2.73;;;0.87;;
10884;SDS011;5495;53.252;10.390;2022-07-15T13:22:54;2.23;;;0.80;;
10884;SDS011;5495;53.252;10.390;2022-07-15T13:25:24;2.40;;;0.80;;
10884;SDS011;5495;53.252;10.390;2022-07-15T13:27:52;2.97;;;0.93;;
10884;SDS011;5495;53.252;10.390;2022-07-15T13:30:20;3.37;;;0.90;;
10884;SDS011;5495;53.252;10.390;2022-07-15T13:32:48;6.03;;;0.97;;
10884;SDS011;5495;53.252;10.390;2022-07-15T13:35:15;3.03;;;1.10;;
10884;SDS011;5495;53.252;10.390;2022-07-15T13:37:43;1.43;;;0.80;;
10884;SDS011;5495;53.252;10.390;2022-07-15T13:40:11;3.90;;;0.70;;
10884;SDS011;5495;53.252;10.390;2022-07-15T13:42:42;2.13;;;0.70;;
10884;SDS011;5495;53.252;10.390;2022-07-15T13:45:11;3.80;;;0.70;;
10884;SDS011;5495;53.252;10.390;2022-07-15T13:47:39;4.87;;;0.90;;
10884;SDS011;5495;53.252;10.390;2022-07-15T13:50:08;3.93;;;0.93;;
10884;SDS011;5495;53.252;10.390;2022-07-15T13:52:55;7.53;;;0.90;;
10884;SDS011;5495;53.252;10.390;2022-07-15T13:55:24;5.63;;;1.10;;
10884;SDS011;5495;53.252;10.390;2022-07-15T13:57:53;3.43;;;1.10;;
10884;SDS011;5495;53.252;10.390;2022-07-15T14:00:23;4.50;;;1.00;;
10884;SDS011;5495;53.252;10.390;2022-07-15T14:02:51;4.53;;;0.93;;
10884;SDS011;5495;53.252;10.390;2022-07-15T14:05:20;2.70;;;0.80;;
10884;SDS011;5495;53.252;10.390;2022-07-15T14:07:49;2.57;;;0.77;;
10884;SDS011;5495;53.252;10.390;2022-07-15T14:10:21;2.80;;;1.17;;
10884;SDS011;5495;53.252;10.390;2022-07-15T14:12:52;3.90;;;0.80;;
10884;SDS011;5495;53.252;10.390;2022-07-15T14:15:21;5.77;;;1.20;;
10884;SDS011;5495;53.252;10.390;2022-07-15T14:17:49;3.47;;;1.00;;
10884;SDS011;5495;53.252;10.390;2022-07-15T14:20:18;4.07;;;1.10;;
10884;SDS011;5495;53.252;10.390;2022-07-15T14:22:46;3.03;;;0.90;;
10884;SDS011;5495;53.252;10.390;2022-07-15T14:25:14;1.73;;;0.90;;
10884;SDS011;5495;53.252;10.390;2022-07-15T14:27:42;2.10;;;0.80;;
10884;SDS011;5495;53.252;10.390;2022-07-15T14:30:11;2.13;;;0.90;;
10884;SDS011;5495;53.252;10.390;2022-07-15T14:32:38;2.87;;;0.90;;
10884;SDS011;5495;53.252;10.390;2022-07-15T14:35:06;3.03;;;0.87;;
10884;SDS011;5495;53.252;10.390;2022-07-15T14:37:35;1.40;;;0.80;;
10884;SDS011;5495;53.252;10.390;2022-07-15T14:40:03;2.87;;;0.70;;
10884;SDS011;5495;53.252;10.390;2022-07-15T14:42:33;3.10;;;1.00;;
10884;SDS011;5495;53.252;10.390;2022-07-15T14:45:01;1.97;;;0.90;;
10884;SDS011;5495;53.252;10.390;2022-07-15T14:47:31;4.07;;;0.90;;
10884;SDS011;5495;53.252;10.390;2022-07-15T14:50:00;2.43;;;0.70;;
10884;SDS011;5495;53.252;10.390;2022-07-15T14:52:27;2.87;;;0.80;;
10884;SDS011;5495;53.252;10.390;2022-07-15T14:54:55;2.77;;;0.87;;
10884;SDS011;5495;53.252;10.390;2022-07-15T14:57:23;2.97;;;1.00;;
10884;SDS011;5495;53.252;10.390;2022-07-15T14:59:56;2.50;;;0.80;;
10884;SDS011;5495;53.252;10.390;2022-07-15T15:02:27;5.70;;;0.80;;
10884;SDS011;5495;53.252;10.390;2022-07-15T15:04:56;2.53;;;0.80;;
10884;SDS011;5495;53.252;10.390;2022-07-15T15:07:23;1.67;;;0.60;;
10884;SDS011;5495;53.252;10.390;2022-07-15T15:09:51;4.23;;;1.00;;
10884;SDS011;5495;53.252;10.390;2022-07-15T15:12:19;1.93;;;1.00;;